createdAt,value
2022-10-29T00:01:39.481Z,48.51
2022-10-29T00:04:11.635Z,48.55
2022-10-29T00:06:43.847Z,48.62
2022-10-29T00:09:16.065Z,48.68
2022-10-29T00:11:48.123Z,48.61
2022-10-29T00:14:20.213Z,48.60
2022-10-29T00:16:53.335Z,48.81
2022-10-29T00:19:26.223Z,48.86
2022-10-29T00:21:58.512Z,48.92
2022-10-29T00:24:30.685Z,49.05
2022-10-29T00:27:02.793Z,49.12
2022-10-29T00:29:34.865Z,49.18
2022-10-29T00:32:07.335Z,49.18
2022-10-29T00:34:37.912Z,49.24
2022-10-29T00:37:10.045Z,49.23
2022-10-29T00:39:42.214Z,49.16
2022-10-29T00:42:17.889Z,49.21
2022-10-29T00:44:51.434Z,49.35
2022-10-29T00:47:25.271Z,49.42
2022-10-29T00:50:01.297Z,49.47
2022-10-29T00:52:35.346Z,49.44
2022-10-29T00:55:10.121Z,49.48
2022-10-29T00:57:47.336Z,49.37
2022-10-29T01:00:20.517Z,49.38
2022-10-29T01:02:52.843Z,49.49
2022-10-29T01:05:27.157Z,49.62
2022-10-29T01:07:59.334Z,49.61
2022-10-29T01:10:37.937Z,49.71
2022-10-29T01:13:23.697Z,49.67
2022-10-29T01:16:01.811Z,49.75
2022-10-29T01:18:39.454Z,49.78
2022-10-29T01:21:28.694Z,49.74
2022-10-29T01:24:31.623Z,49.85
2022-10-29T01:27:30.528Z,49.69
2022-10-29T01:30:09.862Z,49.81
2022-10-29T01:32:50.936Z,49.88
2022-10-29T01:35:29.599Z,49.84
2022-10-29T01:38:11.255Z,49.85
2022-10-29T01:40:50.246Z,49.85
2022-10-29T01:43:26.517Z,50.04
2022-10-29T01:46:03.514Z,50.02
2022-10-29T01:48:39.254Z,50.06
2022-10-29T01:51:15.265Z,50.08
2022-10-29T01:53:47.486Z,50.17
2022-10-29T01:56:19.769Z,50.26
2022-10-29T01:58:54.266Z,50.21
2022-10-29T02:01:38.579Z,50.29
2022-10-29T02:04:25.779Z,50.27
2022-10-29T02:07:03.765Z,50.26
2022-10-29T02:09:40.334Z,50.33
2022-10-29T02:12:18.302Z,50.39
2022-10-29T02:14:53.970Z,50.38
2022-10-29T02:17:26.426Z,50.42
2022-10-29T02:19:58.575Z,50.34
2022-10-29T02:22:30.759Z,50.37
2022-10-29T02:25:03.167Z,50.39
2022-10-29T02:27:33.926Z,50.42
2022-10-29T02:30:07.516Z,50.48
2022-10-29T02:32:39.760Z,50.50
2022-10-29T02:35:12.510Z,50.37
2022-10-29T02:37:44.655Z,50.46
2022-10-29T02:40:17.683Z,50.59
2022-10-29T02:42:49.924Z,50.60
2022-10-29T02:45:22.017Z,50.65
2022-10-29T02:47:54.557Z,50.79
2022-10-29T02:50:25.186Z,50.89
2022-10-29T02:52:57.383Z,50.94
2022-10-29T02:55:29.431Z,50.99
2022-10-29T02:58:01.478Z,50.95
2022-10-29T03:00:33.579Z,51.04
2022-10-29T03:03:05.799Z,51.11
2022-10-29T03:05:37.949Z,51.04
2022-10-29T03:08:10.295Z,51.13
2022-10-29T03:10:42.411Z,51.14
2022-10-29T03:13:14.946Z,51.25
2022-10-29T03:15:48.833Z,51.36
2022-10-29T03:18:20.942Z,51.35
2022-10-29T03:20:53.051Z,51.30
2022-10-29T03:23:25.107Z,51.33
2022-10-29T03:25:57.853Z,51.40
2022-10-29T03:28:30.757Z,51.50
2022-10-29T03:31:02.929Z,51.55
2022-10-29T03:33:35.196Z,51.45
2022-10-29T03:36:09.597Z,51.50
2022-10-29T03:38:41.717Z,51.47
2022-10-29T03:41:13.894Z,51.38
2022-10-29T03:43:46.120Z,51.43
2022-10-29T03:46:18.203Z,51.66
2022-10-29T03:48:53.206Z,51.62
2022-10-29T03:51:25.278Z,51.68
2022-10-29T03:53:57.329Z,51.66
2022-10-29T03:56:29.518Z,51.61
2022-10-29T03:59:01.761Z,51.78
2022-10-29T04:01:34.411Z,51.96
2022-10-29T04:04:06.815Z,51.76
2022-10-29T04:06:39.055Z,51.95
2022-10-29T04:09:11.199Z,51.83
2022-10-29T04:11:43.265Z,51.59
2022-10-29T04:14:15.331Z,51.57
2022-10-29T04:16:47.399Z,51.58
2022-10-29T04:19:19.494Z,51.78
2022-10-29T04:30:27.854Z,51.92
2022-10-29T04:33:01.104Z,51.97
2022-10-29T04:35:33.302Z,52.00
2022-10-29T04:38:10.974Z,52.06
2022-10-29T04:40:43.184Z,52.09
2022-10-29T04:43:15.300Z,52.17
2022-10-29T04:45:51.761Z,52.25
2022-10-29T04:48:24.865Z,52.35
2022-10-29T04:50:56.995Z,52.34
2022-10-29T04:53:29.202Z,52.33
2022-10-29T04:56:05.940Z,52.18
2022-10-29T04:58:38.048Z,52.40
2022-10-29T05:01:10.292Z,52.30
2022-10-29T05:03:42.540Z,52.04
2022-10-29T05:06:13.499Z,52.23
2022-10-29T05:08:45.612Z,52.35
2022-10-29T05:11:17.688Z,52.37
2022-10-29T05:13:49.846Z,52.42
2022-10-29T05:16:22.070Z,52.46
2022-10-29T05:18:54.228Z,52.63
2022-10-29T05:21:26.422Z,52.74
2022-10-29T05:23:58.728Z,52.72
2022-10-29T05:26:33.406Z,52.56
2022-10-29T05:29:05.634Z,52.72
2022-10-29T05:31:37.704Z,52.78
2022-10-29T05:34:09.920Z,52.76
2022-10-29T05:36:42.078Z,52.84
2022-10-29T05:39:14.224Z,52.75
2022-10-29T05:41:46.892Z,52.81
2022-10-29T05:44:19.154Z,52.94
2022-10-29T05:46:52.783Z,52.90
2022-10-29T05:49:24.933Z,52.96
2022-10-29T05:51:57.055Z,52.77
2022-10-29T05:54:29.150Z,52.65
2022-10-29T05:57:02.472Z,52.76
2022-10-29T05:59:34.533Z,52.80
2022-10-29T06:02:06.699Z,52.77
2022-10-29T06:04:38.899Z,52.74
2022-10-29T06:07:10.958Z,53.02
2022-10-29T06:09:43.192Z,53.02
2022-10-29T06:12:15.370Z,53.25
2022-10-29T06:14:47.421Z,53.16
2022-10-29T06:17:19.539Z,53.15
2022-10-29T06:19:51.605Z,53.27
2022-10-29T06:22:23.719Z,53.19
2022-10-29T06:24:55.812Z,53.15
2022-10-29T06:27:27.952Z,53.14
2022-10-29T06:30:00.039Z,53.10
2022-10-29T06:32:32.450Z,53.22
2022-10-29T06:35:04.561Z,53.22
2022-10-29T06:37:40.406Z,53.12
2022-10-29T06:40:13.757Z,53.22
2022-10-29T06:42:45.851Z,53.30
2022-10-29T06:45:18.296Z,53.38
2022-10-29T06:47:50.400Z,53.28
2022-10-29T06:50:22.936Z,53.31
2022-10-29T06:52:59.967Z,53.32
2022-10-29T06:55:32.595Z,53.38
2022-10-29T06:58:06.092Z,53.35
2022-10-29T07:00:38.326Z,53.36
2022-10-29T07:03:11.763Z,53.30
2022-10-29T07:05:43.944Z,53.29
2022-10-29T07:08:16.383Z,53.29
2022-10-29T07:10:50.540Z,53.44
2022-10-29T07:13:22.918Z,53.35
2022-10-29T07:15:55.004Z,53.31
2022-10-29T07:18:27.198Z,53.28
2022-10-29T07:20:59.431Z,53.20
2022-10-29T07:23:31.643Z,53.22
2022-10-29T07:26:03.697Z,53.14
2022-10-29T07:28:35.774Z,53.09
2022-10-29T07:31:08.664Z,52.99
2022-10-29T07:33:40.739Z,52.91
2022-10-29T07:36:12.981Z,52.91
2022-10-29T07:38:45.120Z,52.81
2022-10-29T07:41:17.234Z,52.76
2022-10-29T07:43:49.301Z,52.70
2022-10-29T07:46:21.335Z,52.63
2022-10-29T07:48:53.542Z,52.58
2022-10-29T07:51:25.752Z,52.60
2022-10-29T07:53:57.899Z,52.59
2022-10-29T07:56:30.118Z,52.46
2022-10-29T07:59:02.225Z,52.51
2022-10-29T08:01:35.562Z,52.48
2022-10-29T08:04:07.844Z,52.48
2022-10-29T08:06:40.054Z,52.34
2022-10-29T08:09:13.358Z,52.33
2022-10-29T08:14:22.823Z,52.21
2022-10-29T08:16:56.941Z,52.19
2022-10-29T08:19:30.019Z,52.03
2022-10-29T08:22:02.288Z,51.99
2022-10-29T08:24:34.360Z,51.96
2022-10-29T08:27:06.689Z,51.87
2022-10-29T08:29:38.873Z,52.06
2022-10-29T08:32:10.966Z,51.88
2022-10-29T08:34:43.128Z,51.73
2022-10-29T08:37:15.340Z,51.68
2022-10-29T08:39:47.544Z,51.55
2022-10-29T08:42:29.665Z,51.64
2022-10-29T08:45:22.156Z,51.50
2022-10-29T08:48:24.466Z,51.43
2022-10-29T08:51:02.381Z,51.28
2022-10-29T08:53:38.463Z,51.22
2022-10-29T08:56:16.228Z,51.17
2022-10-29T08:58:57.389Z,51.17
2022-10-29T09:01:29.810Z,51.06
2022-10-29T09:04:02.304Z,51.01
2022-10-29T09:06:44.260Z,50.96
2022-10-29T09:09:29.576Z,50.88
2022-10-29T09:12:13.780Z,50.84
2022-10-29T09:15:11.395Z,50.63
2022-10-29T09:17:48.030Z,50.54
2022-10-29T09:20:27.675Z,50.44
2022-10-29T09:23:06.598Z,50.23
2022-10-29T09:25:43.571Z,50.30
2022-10-29T09:28:23.674Z,50.07
2022-10-29T09:31:00.206Z,49.78
2022-10-29T09:33:32.888Z,49.95
2022-10-29T09:36:09.298Z,49.78
2022-10-29T09:38:46.839Z,49.54
2022-10-29T09:41:19.126Z,49.46
2022-10-29T09:43:55.354Z,49.23
2022-10-29T09:46:37.132Z,49.00
2022-10-29T09:49:20.221Z,48.78
2022-10-29T09:51:56.568Z,48.58
2022-10-29T09:54:31.230Z,48.28
2022-10-29T09:57:05.328Z,48.32
2022-10-29T09:59:39.660Z,47.79
2022-10-29T10:02:28.508Z,47.60
2022-10-29T10:05:05.776Z,47.05
2022-10-29T10:07:37.870Z,46.90
2022-10-29T10:10:13.802Z,46.67
2022-10-29T10:12:50.506Z,46.04
2022-10-29T10:15:25.447Z,45.68
2022-10-29T10:18:00.394Z,45.73
2022-10-29T10:20:38.653Z,45.22
2022-10-29T10:23:26.028Z,44.92
2022-10-29T10:26:02.350Z,44.51
2022-10-29T10:28:37.595Z,44.19
2022-10-29T10:31:09.241Z,44.01
2022-10-29T10:33:52.007Z,43.72
2022-10-29T10:36:26.841Z,43.55
2022-10-29T10:39:00.759Z,43.05
2022-10-29T10:41:35.950Z,42.79
2022-10-29T10:44:08.341Z,42.50
2022-10-29T10:46:43.320Z,42.32
2022-10-29T10:49:19.353Z,42.03
2022-10-29T10:51:54.179Z,41.26
2022-10-29T10:54:37.122Z,40.89
2022-10-29T10:57:25.985Z,40.71
2022-10-29T11:00:06.459Z,40.41
2022-10-29T11:02:46.595Z,40.23
2022-10-29T11:05:21.645Z,40.06
2022-10-29T11:07:59.189Z,39.74
2022-10-29T11:10:37.490Z,39.91
2022-10-29T11:13:15.376Z,39.33
2022-10-29T11:15:52.649Z,38.76
2022-10-29T11:18:30.510Z,38.67
2022-10-29T11:21:15.695Z,38.42
2022-10-29T11:23:53.739Z,38.02
2022-10-29T11:26:33.453Z,37.47
2022-10-29T11:29:15.397Z,37.67
2022-10-29T11:31:56.534Z,37.53
2022-10-29T11:34:40.371Z,37.30
2022-10-29T11:37:18.736Z,36.75
2022-10-29T11:39:53.660Z,36.42
2022-10-29T11:42:26.210Z,36.40
2022-10-29T11:45:01.043Z,36.16
2022-10-29T11:47:44.791Z,36.12
2022-10-29T11:50:26.734Z,35.78
2022-10-29T11:52:59.332Z,35.72
2022-10-29T11:55:37.712Z,35.65
2022-10-29T11:58:20.389Z,35.00
2022-10-29T12:01:04.987Z,34.58
2022-10-29T12:03:55.866Z,34.53
2022-10-29T12:06:36.431Z,34.53
2022-10-29T12:09:27.545Z,33.98
2022-10-29T12:12:04.614Z,33.72
2022-10-29T12:14:40.744Z,33.84
2022-10-29T12:17:17.169Z,33.64
2022-10-29T12:19:53.804Z,33.34
2022-10-29T12:22:35.717Z,33.06
2022-10-29T12:25:32.044Z,32.96
2022-10-29T12:28:11.835Z,32.64
2022-10-29T12:30:49.724Z,32.51
2022-10-29T12:33:28.206Z,32.50
2022-10-29T12:36:03.566Z,32.24
2022-10-29T12:38:41.030Z,31.92
2022-10-29T12:41:21.047Z,31.76
2022-10-29T12:43:55.056Z,31.75
2022-10-29T12:46:32.687Z,31.59
2022-10-29T12:49:11.900Z,31.57
2022-10-29T12:51:50.379Z,31.23
2022-10-29T12:54:33.320Z,31.11
2022-10-29T12:57:21.576Z,30.99
2022-10-29T12:59:53.715Z,30.86
2022-10-29T13:02:31.546Z,30.53
2022-10-29T13:05:39.079Z,30.64
2022-10-29T13:08:27.713Z,30.53
2022-10-29T13:10:59.948Z,30.03
2022-10-29T13:13:53.691Z,30.40
2022-10-29T13:16:30.151Z,30.20
2022-10-29T13:19:22.925Z,30.28
2022-10-29T13:22:15.583Z,30.06
2022-10-29T13:24:47.665Z,29.95
2022-10-29T13:27:38.426Z,29.76
2022-10-29T13:30:25.801Z,29.63
2022-10-29T13:32:59.125Z,29.84
2022-10-29T13:35:44.812Z,29.91
2022-10-29T13:38:17.935Z,29.85
2022-10-29T13:41:06.977Z,29.76
2022-10-29T13:43:39.297Z,29.53
2022-10-29T13:46:27.711Z,29.53
2022-10-29T13:49:02.516Z,29.72
2022-10-29T13:51:40.360Z,29.46
2022-10-29T13:54:17.273Z,29.52
2022-10-29T13:56:53.550Z,29.56
2022-10-29T13:59:31.982Z,29.68
2022-10-29T14:02:30.736Z,29.50
2022-10-29T14:05:07.254Z,29.52
2022-10-29T14:07:44.190Z,29.60
2022-10-29T14:10:22.213Z,29.47
2022-10-29T14:12:58.874Z,29.64
2022-10-29T14:15:31.332Z,29.64
2022-10-29T14:18:03.044Z,29.66
2022-10-29T14:20:35.119Z,29.80
2022-10-29T14:23:11.516Z,29.78
2022-10-29T14:25:43.732Z,29.84
2022-10-29T14:28:18.835Z,29.89
2022-10-29T14:31:01.011Z,29.68
2022-10-29T14:33:35.395Z,29.86
2022-10-29T14:36:16.866Z,29.93
2022-10-29T14:38:52.152Z,29.93
2022-10-29T14:41:24.899Z,29.96
2022-10-29T14:44:04.181Z,30.00
2022-10-29T14:46:37.717Z,30.03
2022-10-29T14:49:16.643Z,30.11
2022-10-29T14:51:54.585Z,30.11
2022-10-29T14:54:29.319Z,30.01
2022-10-29T14:57:05.880Z,30.18
2022-10-29T14:59:38.882Z,30.22
2022-10-29T15:02:37.107Z,30.53
2022-10-29T15:05:24.947Z,30.50
2022-10-29T15:08:16.910Z,30.76
2022-10-29T15:10:54.052Z,30.72
2022-10-29T15:13:31.238Z,30.84
2022-10-29T15:16:38.351Z,30.60
2022-10-29T15:19:38.153Z,30.78
2022-10-29T15:22:26.706Z,30.97
2022-10-29T15:26:58.664Z,31.08
2022-10-29T15:28:26.109Z,30.95
2022-10-29T15:31:10.775Z,31.23
2022-10-29T15:33:50.461Z,31.28
2022-10-29T15:36:53.979Z,31.39
2022-10-29T15:40:04.427Z,31.59
2022-10-29T15:42:41.756Z,31.67
2022-10-29T15:45:23.800Z,31.79
2022-10-29T15:48:27.884Z,31.94
2022-10-29T15:51:37.003Z,31.94
2022-10-29T15:54:19.737Z,32.05
2022-10-29T15:57:28.064Z,32.04
2022-10-29T16:00:13.320Z,32.18
2022-10-29T16:02:55.823Z,32.22
2022-10-29T16:05:32.887Z,32.35
2022-10-29T16:08:20.152Z,32.42
2022-10-29T16:10:54.192Z,32.66
2022-10-29T16:13:39.561Z,32.65
2022-10-29T16:16:42.307Z,32.85
2022-10-29T16:19:20.059Z,32.93
2022-10-29T16:22:00.676Z,32.87
2022-10-29T16:24:43.121Z,33.08
2022-10-29T16:27:24.166Z,33.13
2022-10-29T16:30:21.275Z,33.40
2022-10-29T16:33:01.272Z,33.51
2022-10-29T16:35:35.949Z,33.52
2022-10-29T16:38:08.339Z,33.44
2022-10-29T16:40:38.988Z,33.63
2022-10-29T16:43:14.208Z,33.82
2022-10-29T16:45:47.914Z,33.88
2022-10-29T16:48:20.500Z,33.90
2022-10-29T16:50:53.492Z,34.04
2022-10-29T16:53:25.768Z,34.07
2022-10-29T16:55:58.042Z,34.24
2022-10-29T16:58:30.411Z,33.97
2022-10-29T17:01:10.811Z,34.09
2022-10-29T17:03:44.959Z,34.35
2022-10-29T17:06:17.487Z,34.31
2022-10-29T17:08:51.847Z,34.31
2022-10-29T17:11:28.535Z,34.44
2022-10-29T17:14:03.284Z,34.54
2022-10-29T17:16:41.044Z,34.71
2022-10-29T17:19:19.588Z,34.63
2022-10-29T17:21:58.798Z,34.84
2022-10-29T17:24:32.272Z,34.90
2022-10-29T17:27:38.343Z,35.05
2022-10-29T17:30:19.628Z,35.17
2022-10-29T17:33:00.618Z,35.18
2022-10-29T17:35:38.141Z,35.25
2022-10-29T17:38:14.104Z,35.38
2022-10-29T17:41:05.000Z,35.32
2022-10-29T17:44:09.592Z,35.47
2022-10-29T17:47:05.248Z,35.59
2022-10-29T17:50:11.992Z,35.57
2022-10-29T17:52:59.227Z,35.67
2022-10-29T17:55:31.981Z,35.70
2022-10-29T17:58:06.107Z,35.75
2022-10-29T18:00:38.992Z,35.85
2022-10-29T18:03:12.081Z,35.90
2022-10-29T18:05:44.740Z,35.91
2022-10-29T18:08:18.962Z,36.04
2022-10-29T18:10:58.318Z,35.93
2022-10-29T18:13:38.897Z,35.97
2022-10-29T18:16:25.949Z,36.12
2022-10-29T18:19:03.924Z,36.11
2022-10-29T18:21:36.376Z,36.20
2022-10-29T18:24:10.417Z,36.36
2022-10-29T18:26:49.977Z,36.28
2022-10-29T18:29:23.322Z,36.44
2022-10-29T18:31:57.554Z,36.43
2022-10-29T18:34:30.021Z,36.61
2022-10-29T18:37:02.770Z,36.56
2022-10-29T18:39:42.618Z,36.61
2022-10-29T18:42:16.063Z,36.51
2022-10-29T18:44:51.413Z,36.77
2022-10-29T18:47:25.568Z,36.81
2022-10-29T18:49:59.959Z,36.79
2022-10-29T18:52:32.566Z,36.83
2022-10-29T18:55:05.373Z,37.05
2022-10-29T18:57:43.241Z,37.02
2022-10-29T19:00:18.311Z,37.11
2022-10-29T19:02:54.249Z,37.26
2022-10-29T19:05:27.025Z,37.24
2022-10-29T19:08:02.266Z,37.39
2022-10-29T19:10:37.427Z,37.33
2022-10-29T19:13:12.329Z,37.33
2022-10-29T19:15:47.192Z,37.54
2022-10-29T19:18:22.379Z,37.75
2022-10-29T19:20:56.656Z,37.64
2022-10-29T19:23:33.196Z,37.73
2022-10-29T19:26:08.022Z,37.78
2022-10-29T19:28:45.449Z,37.77
2022-10-29T19:31:20.435Z,37.86
2022-10-29T19:33:53.495Z,37.88
2022-10-29T19:36:26.598Z,37.87
2022-10-29T19:39:00.554Z,38.15
2022-10-29T19:41:34.154Z,38.24
2022-10-29T19:44:06.952Z,38.36
2022-10-29T19:46:39.472Z,38.43
2022-10-29T19:49:12.871Z,38.58
2022-10-29T19:51:46.451Z,38.59
2022-10-29T19:54:18.581Z,38.66
2022-10-29T19:56:50.670Z,38.79
2022-10-29T19:59:23.801Z,38.92
2022-10-29T20:01:55.990Z,38.95
2022-10-29T20:04:28.229Z,39.10
2022-10-29T20:07:00.379Z,39.18
2022-10-29T20:09:32.480Z,39.16
2022-10-29T20:12:04.664Z,39.21
2022-10-29T20:14:36.819Z,39.27
2022-10-29T20:17:08.936Z,39.34
2022-10-29T20:19:41.158Z,39.36
2022-10-29T20:22:14.662Z,39.34
2022-10-29T20:24:47.215Z,39.47
2022-10-29T20:27:19.465Z,39.46
2022-10-29T20:29:51.671Z,39.61
2022-10-29T20:32:24.003Z,39.58
2022-10-29T20:34:56.081Z,39.66
2022-10-29T20:37:28.300Z,39.73
2022-10-29T20:40:00.444Z,39.79
2022-10-29T20:42:33.104Z,39.82
2022-10-29T20:45:05.592Z,39.94
2022-10-29T20:47:36.006Z,39.97
2022-10-29T20:50:09.019Z,40.15
2022-10-29T20:52:45.692Z,40.19
2022-10-29T20:55:20.423Z,40.27
2022-10-29T20:57:52.589Z,40.29
2022-10-29T21:00:24.891Z,40.32
2022-10-29T21:02:57.015Z,40.33
2022-10-29T21:05:29.209Z,40.41
2022-10-29T21:08:01.448Z,40.56
2022-10-29T21:10:33.543Z,40.58
2022-10-29T21:13:06.143Z,40.68
2022-10-29T21:15:37.459Z,40.77
2022-10-29T21:18:09.822Z,40.76
2022-10-29T21:20:41.892Z,40.76
2022-10-29T21:23:16.611Z,40.74
2022-10-29T21:25:56.522Z,40.85
2022-10-29T21:28:30.711Z,40.87
2022-10-29T21:31:05.465Z,40.91
2022-10-29T21:33:37.748Z,40.97
2022-10-29T21:36:11.457Z,41.03
2022-10-29T21:38:43.623Z,41.02
2022-10-29T21:41:15.780Z,41.08
2022-10-29T21:43:52.278Z,41.10
2022-10-29T21:46:26.479Z,41.11
2022-10-29T21:49:01.471Z,41.10
2022-10-29T21:51:36.518Z,41.23
2022-10-29T21:54:09.016Z,41.32
2022-10-29T21:56:41.105Z,41.46
2022-10-29T21:59:16.965Z,41.42
2022-10-29T22:01:49.224Z,41.49
2022-10-29T22:04:21.690Z,41.60
2022-10-29T22:06:57.295Z,41.55
2022-10-29T22:09:32.120Z,41.64
2022-10-29T22:12:04.277Z,41.68
2022-10-29T22:14:36.451Z,41.72
2022-10-29T22:17:08.566Z,41.75
2022-10-29T22:19:43.137Z,41.78
2022-10-29T22:22:15.264Z,42.01
2022-10-29T22:24:47.550Z,42.04
2022-10-29T22:27:19.649Z,42.01
2022-10-29T22:29:54.344Z,42.07
2022-10-29T22:32:28.112Z,42.17
2022-10-29T22:35:03.000Z,42.27
2022-10-29T22:37:37.064Z,42.20
2022-10-29T22:40:13.713Z,42.28
2022-10-29T22:42:45.784Z,42.37
2022-10-29T22:45:18.230Z,42.57
2022-10-29T22:47:53.480Z,42.57
2022-10-29T22:50:30.879Z,42.73
2022-10-29T22:53:03.109Z,42.78
2022-10-29T22:55:35.266Z,42.76
2022-10-29T22:58:11.777Z,42.97
2022-10-29T23:00:48.113Z,42.87
2022-10-29T23:03:20.988Z,42.83
2022-10-29T23:06:02.676Z,42.93
2022-10-29T23:08:37.759Z,43.06
2022-10-29T23:11:15.026Z,43.12
2022-10-29T23:13:50.175Z,43.10
2022-10-29T23:16:25.259Z,43.17
2022-10-29T23:18:56.496Z,43.21
2022-10-29T23:21:28.992Z,43.36
2022-10-29T23:24:01.221Z,43.33
2022-10-29T23:26:33.038Z,43.33
2022-10-29T23:29:05.418Z,43.45
2022-10-29T23:31:40.561Z,43.57
2022-10-29T23:34:15.447Z,43.65
2022-10-29T23:36:47.673Z,43.65
2022-10-29T23:39:19.893Z,43.65
2022-10-29T23:41:54.761Z,43.73
2022-10-29T23:44:28.159Z,43.74
2022-10-29T23:47:03.324Z,43.76
2022-10-29T23:49:35.530Z,43.76
2022-10-29T23:52:07.857Z,43.86
2022-10-29T23:54:42.602Z,43.76
2022-10-29T23:57:14.915Z,44.02
2022-10-29T23:59:50.662Z,44.05
